createdAt,value
2019-03-22T00:00:38.385Z,4.97
2019-03-22T00:03:06.250Z,4.90
2019-03-22T00:05:53.153Z,4.93
2019-03-22T00:08:40.576Z,4.87
2019-03-22T00:11:27.357Z,4.70
2019-03-22T00:14:14.191Z,4.77
2019-03-22T00:17:01.466Z,5.20
2019-03-22T00:19:48.199Z,4.93
2019-03-22T00:22:35.021Z,5.20
2019-03-22T00:25:21.991Z,5.50
2019-03-22T00:31:03.437Z,4.80
2019-03-22T00:33:50.566Z,5.27
2019-03-22T00:36:18.197Z,4.97
2019-03-22T00:39:05.240Z,4.87
2019-03-22T00:41:52.122Z,4.97
2019-03-22T00:44:39.067Z,5.27
2019-03-22T00:47:25.837Z,4.77
2019-03-22T00:50:12.935Z,5.27
2019-03-22T00:52:40.633Z,4.83
2019-03-22T00:55:27.662Z,4.77
2019-03-22T00:58:14.658Z,5.20
2019-03-22T01:01:01.777Z,5.10
2019-03-22T01:03:29.175Z,5.23
2019-03-22T01:06:15.953Z,4.97
2019-03-22T01:12:11.542Z,5.23
2019-03-22T01:14:58.309Z,4.80
2019-03-22T01:17:45.178Z,5.10
2019-03-22T01:20:32.497Z,5.20
2019-03-22T01:23:19.629Z,5.27
2019-03-22T01:26:06.733Z,5.10
2019-03-22T01:28:54.093Z,5.20
2019-03-22T01:31:40.885Z,5.00
2019-03-22T01:34:27.772Z,4.90
2019-03-22T01:37:14.976Z,4.77
2019-03-22T01:40:02.226Z,4.63
2019-03-22T01:42:49.336Z,4.57
2019-03-22T01:45:36.192Z,4.60
2019-03-22T01:48:03.756Z,4.87
2019-03-22T01:50:50.803Z,4.73
2019-03-22T01:53:37.689Z,4.93
2019-03-22T01:56:24.768Z,5.10
2019-03-22T01:59:11.702Z,5.60
2019-03-22T02:01:58.669Z,5.20
2019-03-22T02:04:45.517Z,5.07
2019-03-22T02:07:32.489Z,4.93
2019-03-22T02:10:19.309Z,4.87
2019-03-22T02:12:46.934Z,4.77
2019-03-22T02:15:33.789Z,4.90
2019-03-22T02:18:20.573Z,4.40
2019-03-22T02:21:07.374Z,5.40
2019-03-22T02:23:54.187Z,5.30
2019-03-22T02:26:41.111Z,4.83
2019-03-22T02:29:28.065Z,4.87
2019-03-22T02:31:55.656Z,4.63
2019-03-22T02:34:42.418Z,5.23
2019-03-22T02:37:29.282Z,4.90
2019-03-22T02:39:56.788Z,4.90
2019-03-22T02:42:43.875Z,5.27
2019-03-22T02:45:30.657Z,5.00
2019-03-22T02:48:17.686Z,5.40
2019-03-22T02:50:45.674Z,5.37
2019-03-22T02:53:13.225Z,5.13
2019-03-22T02:56:01.096Z,4.90
2019-03-22T02:58:48.182Z,5.10
2019-03-22T03:01:34.993Z,4.97
2019-03-22T03:04:21.902Z,4.80
2019-03-22T03:06:49.906Z,4.70
2019-03-22T03:09:36.572Z,4.90
2019-03-22T03:12:16.035Z,4.97
2019-03-22T03:14:56.206Z,4.80
2019-03-22T03:17:36.246Z,4.80
2019-03-22T03:20:16.173Z,5.13
2019-03-22T03:22:55.602Z,5.40
2019-03-22T03:25:35.491Z,4.80
2019-03-22T03:28:15.417Z,4.73
2019-03-22T03:30:42.776Z,4.93
2019-03-22T03:33:29.570Z,4.43
2019-03-22T03:36:16.392Z,4.43
2019-03-22T03:38:44.108Z,4.87
2019-03-22T03:41:31.271Z,5.13
2019-03-22T03:44:18.373Z,5.10
2019-03-22T03:47:05.237Z,4.53
2019-03-22T03:49:52.043Z,4.80
2019-03-22T03:52:39.582Z,4.90
2019-03-22T03:55:27.745Z,4.63
2019-03-22T03:58:14.566Z,4.53
2019-03-22T04:01:01.405Z,4.70
2019-03-22T04:03:48.310Z,4.67
2019-03-22T04:06:35.131Z,4.70
2019-03-22T04:09:21.980Z,4.53
2019-03-22T04:12:01.337Z,4.50
2019-03-22T04:14:28.761Z,4.47
2019-03-22T04:17:15.690Z,4.73
2019-03-22T04:19:42.993Z,4.70
2019-03-22T04:22:10.530Z,4.67
2019-03-22T04:24:37.918Z,4.40
2019-03-22T04:27:24.686Z,4.40
2019-03-22T04:30:11.537Z,4.20
2019-03-22T04:32:39.002Z,3.93
2019-03-22T04:35:25.807Z,3.93
2019-03-22T04:38:12.857Z,3.80
2019-03-22T04:40:59.622Z,4.03
2019-03-22T04:43:46.398Z,3.83
2019-03-22T04:46:33.502Z,3.90
2019-03-22T04:49:20.721Z,4.00
2019-03-22T04:52:09.335Z,3.90
2019-03-22T04:55:17.640Z,3.80
2019-03-22T04:58:25.853Z,3.93
2019-03-22T05:01:12.858Z,4.10
2019-03-22T05:04:21.787Z,4.00
2019-03-22T05:07:08.641Z,3.80
2019-03-22T05:09:55.406Z,4.13
2019-03-22T05:12:34.986Z,4.10
2019-03-22T05:15:15.126Z,3.93
2019-03-22T05:17:55.204Z,3.83
2019-03-22T05:24:12.315Z,4.07
2019-03-22T05:26:59.091Z,3.73
2019-03-22T05:29:46.962Z,4.47
2019-03-22T05:32:16.785Z,4.23
2019-03-22T05:34:44.261Z,4.60
2019-03-22T05:37:30.945Z,4.03
2019-03-22T05:39:58.257Z,5.00
2019-03-22T05:42:45.029Z,4.20
2019-03-22T05:45:31.805Z,4.53
2019-03-22T05:48:18.593Z,4.37
2019-03-22T05:51:05.360Z,4.73
2019-03-22T05:53:52.122Z,4.80
2019-03-22T05:56:38.809Z,4.60
2019-03-22T05:59:25.601Z,4.87
2019-03-22T06:02:12.389Z,4.67
2019-03-22T06:04:59.061Z,5.07
2019-03-22T06:07:45.826Z,4.80
2019-03-22T06:10:32.859Z,5.30
2019-03-22T06:13:12.172Z,5.40
2019-03-22T06:15:52.223Z,5.40
2019-03-22T06:18:32.246Z,5.40
2019-03-22T06:21:12.383Z,5.30
2019-03-22T06:23:39.752Z,4.50
2019-03-22T06:26:26.545Z,4.77
2019-03-22T06:29:13.329Z,5.30
2019-03-22T06:32:00.176Z,5.40
2019-03-22T06:34:46.739Z,5.60
2019-03-22T06:37:33.541Z,4.93
2019-03-22T06:40:20.338Z,11.03
2019-03-22T06:43:07.121Z,5.63
2019-03-22T06:45:53.932Z,5.90
2019-03-22T06:48:40.945Z,5.70
2019-03-22T06:51:08.241Z,5.60
2019-03-22T06:53:54.931Z,5.70
2019-03-22T06:56:22.257Z,6.05
2019-03-22T06:58:49.549Z,6.00
2019-03-22T07:01:16.994Z,5.70
2019-03-22T07:03:44.268Z,5.97
2019-03-22T07:06:11.845Z,6.20
2019-03-22T07:08:39.213Z,6.40
2019-03-22T07:11:06.828Z,5.90
2019-03-22T07:13:34.327Z,5.83
2019-03-22T07:16:01.718Z,6.00
2019-03-22T07:18:29.241Z,6.40
2019-03-22T07:20:56.568Z,5.83
2019-03-22T07:23:24.066Z,5.95
2019-03-22T07:25:51.473Z,6.58
2019-03-22T07:28:18.886Z,6.35
2019-03-22T07:30:46.309Z,6.60
2019-03-22T07:33:14.000Z,6.47
2019-03-22T07:35:41.523Z,7.40
2019-03-22T07:38:08.910Z,6.62
2019-03-22T07:40:36.238Z,6.72
2019-03-22T07:43:03.723Z,6.30
2019-03-22T07:45:31.133Z,6.22
2019-03-22T07:47:58.435Z,6.55
2019-03-22T07:50:25.749Z,6.80
2019-03-22T07:52:53.252Z,6.60
2019-03-22T07:55:20.641Z,7.60
2019-03-22T07:57:48.074Z,7.20
2019-03-22T08:00:15.592Z,7.65
2019-03-22T08:02:43.016Z,7.12
2019-03-22T08:05:10.510Z,6.60
2019-03-22T08:07:37.928Z,7.08
2019-03-22T08:10:06.232Z,7.35
2019-03-22T08:12:33.808Z,6.45
2019-03-22T08:15:01.199Z,7.00
2019-03-22T08:17:28.504Z,7.00
2019-03-22T08:19:57.225Z,7.00
2019-03-22T08:22:24.952Z,7.25
2019-03-22T08:24:53.046Z,7.40
2019-03-22T08:27:20.420Z,7.42
2019-03-22T08:29:47.730Z,7.03
2019-03-22T08:32:15.221Z,6.67
2019-03-22T08:34:42.612Z,7.55
2019-03-22T08:37:09.998Z,7.10
2019-03-22T08:39:37.291Z,7.20
2019-03-22T08:42:04.709Z,6.83
2019-03-22T08:44:32.329Z,6.72
2019-03-22T08:46:59.790Z,7.00
2019-03-22T08:49:27.317Z,6.83
2019-03-22T08:51:54.750Z,7.25
2019-03-22T08:54:22.025Z,7.00
2019-03-22T08:56:49.559Z,6.55
2019-03-22T08:59:17.023Z,6.95
2019-03-22T09:01:44.442Z,6.95
2019-03-22T09:04:11.764Z,7.50
2019-03-22T09:06:39.401Z,7.17
2019-03-22T09:09:07.285Z,6.75
2019-03-22T09:11:34.970Z,7.55
2019-03-22T09:14:02.283Z,7.40
2019-03-22T09:16:30.903Z,7.22
2019-03-22T09:18:58.635Z,7.70
2019-03-22T09:21:25.932Z,7.35
2019-03-22T09:23:53.230Z,7.90
2019-03-22T09:26:20.608Z,7.72
2019-03-22T09:28:48.008Z,7.15
2019-03-22T09:31:15.614Z,7.08
2019-03-22T09:33:43.276Z,7.17
2019-03-22T09:36:10.810Z,7.03
2019-03-22T09:38:38.343Z,7.17
2019-03-22T09:41:06.047Z,7.53
2019-03-22T09:43:33.450Z,7.78
2019-03-22T09:46:00.834Z,7.37
2019-03-22T09:48:28.285Z,7.70
2019-03-22T09:50:55.874Z,7.55
2019-03-22T09:53:23.269Z,6.65
2019-03-22T09:55:50.891Z,7.05
2019-03-22T09:58:18.544Z,7.08
2019-03-22T10:00:48.618Z,7.35
2019-03-22T10:03:15.068Z,7.28
2019-03-22T10:05:42.490Z,7.33
2019-03-22T10:08:10.011Z,7.37
2019-03-22T10:10:37.671Z,7.78
2019-03-22T10:13:05.141Z,8.20
2019-03-22T10:15:32.566Z,7.80
2019-03-22T10:17:59.966Z,6.92
2019-03-22T10:20:27.438Z,6.87
2019-03-22T10:22:54.905Z,6.65
2019-03-22T10:25:22.372Z,6.78
2019-03-22T10:27:49.793Z,6.28
2019-03-22T10:30:17.710Z,6.20
2019-03-22T10:32:45.134Z,6.12
2019-03-22T10:35:25.014Z,6.58
2019-03-22T10:37:41.971Z,6.45
2019-03-22T10:40:09.525Z,6.28
2019-03-22T10:42:37.005Z,5.95
2019-03-22T10:45:04.726Z,6.60
2019-03-22T10:47:32.138Z,6.85
2019-03-22T10:49:59.624Z,6.85
2019-03-22T10:52:27.078Z,6.58
2019-03-22T10:54:54.463Z,6.90
2019-03-22T10:57:22.121Z,7.17
2019-03-22T10:59:49.400Z,6.65
2019-03-22T11:02:16.828Z,5.53
2019-03-22T11:04:44.202Z,5.80
2019-03-22T11:07:11.630Z,5.83
2019-03-22T11:09:38.972Z,6.30
2019-03-22T11:12:12.176Z,5.87
2019-03-22T11:14:35.739Z,5.58
2019-03-22T11:17:03.353Z,5.75
2019-03-22T11:19:30.929Z,5.80
2019-03-22T11:21:58.442Z,5.72
2019-03-22T11:24:25.849Z,4.58
2019-03-22T11:26:53.257Z,2.70
2019-03-22T11:29:20.781Z,3.42
2019-03-22T11:31:48.085Z,2.70
2019-03-22T11:34:15.873Z,2.52
2019-03-22T11:36:43.374Z,2.47
2019-03-22T11:39:15.558Z,2.70
2019-03-22T11:41:40.202Z,2.60
2019-03-22T11:44:07.705Z,2.47
2019-03-22T11:46:35.108Z,2.52
2019-03-22T11:49:02.712Z,2.70
2019-03-22T11:51:30.377Z,2.65
2019-03-22T11:53:57.904Z,2.60
2019-03-22T11:56:25.423Z,2.58
2019-03-22T11:58:52.826Z,2.70
2019-03-22T12:01:22.315Z,2.33
2019-03-22T12:03:49.479Z,2.77
2019-03-22T12:06:16.897Z,2.47
2019-03-22T12:08:44.318Z,2.52
2019-03-22T12:11:12.009Z,2.83
2019-03-22T12:13:39.636Z,3.10
2019-03-22T12:16:07.055Z,2.55
2019-03-22T12:18:34.434Z,2.47
2019-03-22T12:21:01.838Z,2.72
2019-03-22T12:23:29.521Z,2.67
2019-03-22T12:25:56.942Z,2.50
2019-03-22T12:28:24.576Z,2.70
2019-03-22T12:30:52.089Z,2.58
2019-03-22T12:33:19.720Z,2.50
2019-03-22T12:35:47.222Z,2.40
2019-03-22T12:38:14.994Z,2.20
2019-03-22T12:40:42.293Z,2.62
2019-03-22T12:43:09.786Z,2.40
2019-03-22T12:45:37.222Z,2.30
2019-03-22T12:48:04.702Z,2.17
2019-03-22T12:50:32.140Z,2.00
2019-03-22T12:52:59.537Z,1.75
2019-03-22T12:55:27.066Z,1.62
2019-03-22T12:57:54.692Z,1.82
2019-03-22T13:00:22.513Z,1.87
2019-03-22T13:02:50.166Z,1.80
2019-03-22T13:05:17.773Z,1.98
2019-03-22T13:07:45.253Z,1.70
2019-03-22T13:10:13.403Z,1.80
2019-03-22T13:12:41.230Z,1.72
2019-03-22T13:15:09.012Z,1.72
2019-03-22T13:17:36.557Z,1.60
2019-03-22T13:20:05.377Z,1.45
2019-03-22T13:22:32.983Z,1.60
2019-03-22T13:25:00.530Z,1.57
2019-03-22T13:27:28.278Z,1.55
2019-03-22T13:29:55.859Z,1.62
2019-03-22T13:32:24.087Z,1.57
2019-03-22T13:34:51.597Z,1.45
2019-03-22T13:37:19.126Z,1.90
2019-03-22T13:39:46.558Z,1.55
2019-03-22T13:42:14.211Z,1.60
2019-03-22T13:45:02.787Z,2.05
2019-03-22T13:47:30.638Z,1.57
2019-03-22T13:49:58.033Z,1.52
2019-03-22T13:52:25.600Z,1.70
2019-03-22T13:54:53.299Z,1.50
2019-03-22T13:57:20.718Z,1.50
2019-03-22T13:59:48.406Z,1.50
2019-03-22T14:02:15.943Z,1.60
2019-03-22T14:04:43.490Z,1.50
2019-03-22T14:07:11.141Z,1.50
2019-03-22T14:09:38.524Z,1.45
2019-03-22T14:12:06.105Z,1.40
2019-03-22T14:14:33.458Z,1.70
2019-03-22T14:17:01.062Z,1.37
2019-03-22T14:19:28.429Z,1.40
2019-03-22T14:21:55.887Z,1.40
2019-03-22T14:24:23.593Z,1.40
2019-03-22T14:26:51.121Z,1.52
2019-03-22T14:29:18.789Z,1.50
2019-03-22T14:31:46.179Z,1.47
2019-03-22T14:34:13.741Z,1.32
2019-03-22T14:36:41.714Z,1.65
2019-03-22T14:39:09.485Z,1.50
2019-03-22T14:41:36.798Z,1.45
2019-03-22T14:44:25.846Z,1.60
2019-03-22T14:47:12.908Z,1.60
2019-03-22T14:49:39.708Z,1.40
2019-03-22T14:52:07.128Z,1.60
2019-03-22T14:54:34.477Z,1.60
2019-03-22T14:57:01.977Z,1.67
2019-03-22T14:59:29.513Z,1.70
2019-03-22T15:01:57.007Z,1.72
2019-03-22T15:04:24.327Z,1.85
2019-03-22T15:06:51.833Z,1.60
2019-03-22T15:09:19.241Z,1.62
2019-03-22T15:11:46.642Z,1.60
2019-03-22T15:14:51.678Z,1.80
2019-03-22T15:17:41.694Z,1.60
2019-03-22T15:20:21.650Z,1.40
2019-03-22T15:23:17.764Z,1.50
2019-03-22T15:26:14.138Z,1.60
2019-03-22T15:29:07.415Z,1.57
2019-03-22T15:31:47.957Z,1.47
2019-03-22T15:34:47.166Z,1.50
2019-03-22T15:37:46.899Z,1.77
2019-03-22T15:40:14.203Z,1.65
2019-03-22T15:42:41.701Z,1.50
2019-03-22T15:45:10.203Z,1.60
2019-03-22T15:47:37.859Z,1.80
2019-03-22T15:50:06.869Z,1.90
2019-03-22T15:52:34.309Z,1.70
2019-03-22T15:55:01.853Z,1.70
2019-03-22T15:57:29.255Z,1.90
2019-03-22T15:59:56.792Z,1.95
2019-03-22T16:02:24.326Z,2.00
2019-03-22T16:04:51.825Z,2.10
2019-03-22T16:07:19.259Z,1.87
2019-03-22T16:09:46.792Z,2.10
2019-03-22T16:12:14.081Z,1.80
2019-03-22T16:14:41.589Z,1.80
2019-03-22T16:17:08.993Z,1.80
2019-03-22T16:19:36.622Z,1.80
2019-03-22T16:22:04.053Z,2.00
2019-03-22T16:24:31.462Z,1.87
2019-03-22T16:26:58.813Z,1.67
2019-03-22T16:29:26.294Z,2.08
2019-03-22T16:31:53.643Z,1.82
2019-03-22T16:34:21.053Z,1.80
2019-03-22T16:36:48.449Z,1.67
2019-03-22T16:39:15.831Z,1.90
2019-03-22T16:41:43.242Z,1.90
2019-03-22T16:44:10.636Z,2.05
2019-03-22T16:46:37.957Z,2.10
2019-03-22T16:49:05.292Z,2.22
2019-03-22T16:51:32.751Z,2.20
2019-03-22T16:54:00.280Z,2.00
2019-03-22T16:56:27.693Z,1.90
2019-03-22T16:58:55.101Z,1.87
2019-03-22T17:01:22.458Z,1.87
2019-03-22T17:03:49.942Z,1.90
2019-03-22T17:06:17.447Z,2.00
2019-03-22T17:08:44.869Z,2.20
2019-03-22T17:11:12.667Z,2.25
2019-03-22T17:13:40.218Z,2.10
2019-03-22T17:16:07.742Z,2.45
2019-03-22T17:18:35.364Z,2.42
2019-03-22T17:21:02.910Z,2.12
2019-03-22T17:23:30.498Z,2.10
2019-03-22T17:25:58.155Z,2.25
2019-03-22T17:28:25.602Z,2.27
2019-03-22T17:30:53.004Z,2.30
2019-03-22T17:33:20.522Z,2.02
2019-03-22T17:35:47.818Z,2.00
2019-03-22T17:38:16.198Z,2.08
2019-03-22T17:40:43.521Z,2.00
2019-03-22T17:43:10.909Z,1.90
2019-03-22T17:45:38.269Z,2.58
2019-03-22T17:48:05.775Z,2.30
2019-03-22T17:50:33.196Z,1.90
2019-03-22T17:53:00.713Z,2.10
2019-03-22T17:55:28.013Z,2.80
2019-03-22T17:57:55.428Z,1.92
2019-03-22T18:00:23.917Z,2.00
2019-03-22T18:02:51.464Z,2.05
2019-03-22T18:05:18.744Z,2.25
2019-03-22T18:07:46.162Z,2.12
2019-03-22T18:10:13.693Z,2.30
2019-03-22T18:12:41.085Z,2.25
2019-03-22T18:15:10.056Z,2.10
2019-03-22T18:17:37.576Z,2.45
2019-03-22T18:20:07.272Z,2.67
2019-03-22T18:22:34.818Z,2.90
2019-03-22T18:25:02.300Z,2.35
2019-03-22T18:27:29.601Z,2.42
2019-03-22T18:29:57.068Z,2.87
2019-03-22T18:32:24.538Z,2.10
2019-03-22T18:34:51.897Z,2.75
2019-03-22T18:37:19.231Z,2.58
2019-03-22T18:39:46.633Z,2.12
2019-03-22T18:42:14.057Z,2.22
2019-03-22T18:44:41.361Z,2.33
2019-03-22T18:47:08.870Z,2.40
2019-03-22T18:49:36.288Z,2.62
2019-03-22T18:52:03.863Z,2.57
2019-03-22T18:54:31.261Z,2.30
2019-03-22T18:56:58.585Z,2.40
2019-03-22T18:59:25.908Z,2.37
2019-03-22T19:01:53.806Z,2.52
2019-03-22T19:04:21.323Z,3.10
2019-03-22T19:06:48.761Z,3.30
2019-03-22T19:09:16.156Z,2.98
2019-03-22T19:11:43.965Z,2.20
2019-03-22T19:14:11.349Z,2.42
2019-03-22T19:16:38.795Z,3.10
2019-03-22T19:19:06.184Z,2.27
2019-03-22T19:21:33.869Z,2.22
2019-03-22T19:24:01.261Z,2.60
2019-03-22T19:26:30.516Z,2.40
2019-03-22T19:28:58.126Z,2.30
2019-03-22T19:31:25.545Z,2.55
2019-03-22T19:33:53.243Z,2.40
2019-03-22T19:36:20.669Z,2.67
2019-03-22T19:38:48.245Z,2.67
2019-03-22T19:41:15.552Z,3.33
2019-03-22T19:43:42.972Z,2.70
2019-03-22T19:46:10.266Z,2.90
2019-03-22T19:48:37.684Z,2.40
2019-03-22T19:51:05.112Z,2.77
2019-03-22T19:53:32.556Z,2.60
2019-03-22T19:55:59.948Z,2.60
2019-03-22T19:58:27.288Z,2.73
2019-03-22T20:00:54.898Z,2.30
2019-03-22T20:03:22.300Z,2.47
2019-03-22T20:05:49.867Z,2.80
2019-03-22T20:08:17.177Z,2.63
2019-03-22T20:10:44.780Z,2.93
2019-03-22T20:13:12.289Z,2.90
2019-03-22T20:15:39.998Z,2.87
2019-03-22T20:18:07.612Z,2.87
2019-03-22T20:20:36.224Z,3.00
2019-03-22T20:23:03.803Z,3.37
2019-03-22T20:25:31.230Z,3.58
2019-03-22T20:27:59.002Z,3.30
2019-03-22T20:30:26.597Z,3.77
2019-03-22T20:32:54.395Z,3.63
2019-03-22T20:35:21.915Z,4.00
2019-03-22T20:37:49.553Z,4.30
2019-03-22T20:40:17.813Z,4.20
2019-03-22T20:42:45.346Z,4.27
2019-03-22T20:45:23.266Z,3.83
2019-03-22T20:47:42.330Z,4.47
2019-03-22T20:50:10.257Z,4.87
2019-03-22T20:52:38.033Z,4.33
2019-03-22T20:55:07.306Z,4.90
2019-03-22T20:57:34.901Z,4.53
2019-03-22T21:00:02.924Z,4.37
2019-03-22T21:02:30.574Z,5.10
2019-03-22T21:04:57.908Z,6.20
2019-03-22T21:07:25.578Z,6.60
2019-03-22T21:09:53.102Z,5.57
2019-03-22T21:12:20.673Z,5.00
2019-03-22T21:14:47.993Z,5.30
2019-03-22T21:17:16.205Z,5.07
2019-03-22T21:19:43.842Z,4.90
2019-03-22T21:22:11.256Z,5.23
2019-03-22T21:24:38.692Z,5.47
2019-03-22T21:27:15.153Z,5.20
2019-03-22T21:29:43.791Z,5.30
2019-03-22T21:32:05.016Z,4.83
2019-03-22T21:34:32.332Z,5.40
2019-03-22T21:36:59.784Z,5.10
2019-03-22T21:39:27.220Z,5.47
2019-03-22T21:41:54.801Z,5.60
2019-03-22T21:44:22.323Z,5.23
2019-03-22T21:46:49.801Z,5.60
2019-03-22T21:49:17.227Z,5.10
2019-03-22T21:51:44.783Z,5.33
2019-03-22T21:54:12.132Z,5.57
2019-03-22T21:56:39.574Z,5.40
2019-03-22T21:59:07.079Z,5.30
2019-03-22T22:01:34.606Z,4.87
2019-03-22T22:04:02.014Z,4.90
2019-03-22T22:06:29.472Z,5.00
2019-03-22T22:08:57.164Z,4.90
2019-03-22T22:11:24.499Z,5.00
2019-03-22T22:13:52.081Z,5.17
2019-03-22T22:16:19.624Z,4.97
2019-03-22T22:18:47.064Z,4.90
2019-03-22T22:21:14.800Z,5.10
2019-03-22T22:23:42.259Z,4.97
2019-03-22T22:26:09.782Z,5.17
2019-03-22T22:28:37.424Z,5.30
2019-03-22T22:31:05.252Z,5.30
2019-03-22T22:33:32.818Z,5.63
2019-03-22T22:36:00.509Z,4.93
2019-03-22T22:38:27.981Z,5.70
2019-03-22T22:40:55.624Z,6.07
2019-03-22T22:43:23.001Z,6.00
2019-03-22T22:45:50.445Z,6.10
2019-03-22T22:48:17.993Z,5.63
2019-03-22T22:50:45.642Z,5.77
2019-03-22T22:53:13.628Z,5.53
2019-03-22T22:55:41.526Z,5.50
2019-03-22T22:58:11.506Z,5.73
2019-03-22T23:00:39.574Z,5.87
2019-03-22T23:03:07.454Z,6.60
2019-03-22T23:05:34.976Z,5.83
2019-03-22T23:08:02.583Z,6.10
2019-03-22T23:10:30.039Z,6.13
2019-03-22T23:12:57.631Z,6.63
2019-03-22T23:15:25.680Z,6.03
2019-03-22T23:17:53.248Z,6.77
2019-03-22T23:20:22.353Z,5.90
2019-03-22T23:22:50.311Z,5.70
2019-03-22T23:25:18.372Z,6.27
2019-03-22T23:27:45.733Z,6.10
2019-03-22T23:30:13.523Z,5.97
2019-03-22T23:32:41.277Z,5.80
2019-03-22T23:35:08.766Z,6.20
2019-03-22T23:37:36.221Z,5.60
2019-03-22T23:40:04.437Z,5.40
2019-03-22T23:42:31.976Z,5.83
2019-03-22T23:45:00.767Z,6.00
2019-03-22T23:47:28.334Z,6.10
2019-03-22T23:49:55.676Z,5.90
2019-03-22T23:52:22.989Z,5.93
2019-03-22T23:54:50.671Z,6.10
2019-03-22T23:57:18.069Z,5.70
2019-03-22T23:59:45.488Z,5.90
